createdAt,value
2022-12-25T00:01:58.673Z,6.20
2022-12-25T00:05:13.460Z,6.45
2022-12-25T00:08:28.895Z,6.03
2022-12-25T00:11:43.528Z,5.85
2022-12-25T00:14:52.147Z,5.00
2022-12-25T00:18:00.489Z,5.53
2022-12-25T00:21:17.452Z,4.72
2022-12-25T00:24:25.497Z,5.90
2022-12-25T00:27:40.809Z,5.32
2022-12-25T00:30:49.505Z,4.60
2022-12-25T00:33:58.198Z,5.40
2022-12-25T00:37:12.454Z,5.00
2022-12-25T00:40:21.475Z,4.85
2022-12-25T00:43:36.564Z,5.35
2022-12-25T00:46:51.705Z,4.70
2022-12-25T00:49:53.890Z,4.80
2022-12-25T00:53:08.459Z,5.07
2022-12-25T00:56:10.430Z,5.32
2022-12-25T00:59:25.562Z,5.35
2022-12-25T01:02:27.641Z,5.60
2022-12-25T01:05:42.459Z,5.47
2022-12-25T01:08:44.400Z,5.47
2022-12-25T01:11:59.468Z,5.07
2022-12-25T01:15:01.583Z,5.20
2022-12-25T01:18:16.509Z,5.20
2022-12-25T01:21:25.265Z,3.85
2022-12-25T01:24:40.492Z,4.20
2022-12-25T01:27:48.803Z,4.32
2022-12-25T01:31:03.500Z,4.40
2022-12-25T01:34:05.404Z,3.73
2022-12-25T01:37:20.482Z,3.75
2022-12-25T01:40:29.274Z,3.55
2022-12-25T01:44:04.516Z,3.67
2022-12-25T01:47:07.527Z,3.65
2022-12-25T01:50:24.490Z,3.80
2022-12-25T01:53:39.497Z,3.87
2022-12-25T01:56:50.945Z,3.87
2022-12-25T02:00:01.524Z,3.65
2022-12-25T02:03:10.259Z,3.67
2022-12-25T02:06:18.548Z,3.43
2022-12-25T02:09:27.188Z,3.67
2022-12-25T02:12:39.554Z,2.70
2022-12-25T02:16:13.566Z,3.40
2022-12-25T02:19:33.435Z,3.92
2022-12-25T02:23:08.533Z,3.13
2022-12-25T02:26:56.560Z,3.58
2022-12-25T02:30:16.496Z,3.33
2022-12-25T02:33:39.635Z,3.35
2022-12-25T02:37:08.112Z,3.45
2022-12-25T02:40:34.508Z,3.57
2022-12-25T02:43:45.381Z,3.35
2022-12-25T02:46:54.526Z,4.35
2022-12-25T02:50:11.667Z,3.47
2022-12-25T02:53:29.613Z,3.50
2022-12-25T02:56:48.534Z,3.70
2022-12-25T02:59:52.067Z,4.05
2022-12-25T03:03:08.573Z,4.28
2022-12-25T03:06:19.412Z,4.35
2022-12-25T03:09:41.567Z,3.90
2022-12-25T03:13:00.550Z,3.50
2022-12-25T03:16:09.645Z,3.67
2022-12-25T03:19:28.558Z,3.97
2022-12-25T03:22:39.264Z,4.03
2022-12-25T03:25:53.559Z,4.20
2022-12-25T03:29:08.569Z,4.03
2022-12-25T03:32:33.913Z,3.67
2022-12-25T03:36:16.582Z,5.20
2022-12-25T03:39:33.364Z,4.10
2022-12-25T03:42:50.568Z,4.28
2022-12-25T03:46:10.627Z,4.50
2022-12-25T03:49:23.895Z,4.12
2022-12-25T03:52:41.793Z,4.10
2022-12-25T03:55:44.025Z,4.10
2022-12-25T03:59:03.612Z,4.80
2022-12-25T04:02:11.663Z,4.53
2022-12-25T04:05:26.579Z,5.72
2022-12-25T04:08:28.506Z,5.28
2022-12-25T04:11:44.609Z,5.40
2022-12-25T04:14:46.421Z,4.82
2022-12-25T04:18:01.660Z,5.43
2022-12-25T04:21:03.713Z,4.80
2022-12-25T04:24:19.711Z,5.00
2022-12-25T04:27:41.588Z,5.07
2022-12-25T04:30:56.642Z,5.05
2022-12-25T04:33:58.513Z,4.97
2022-12-25T04:37:13.612Z,5.85
2022-12-25T04:40:15.809Z,5.10
2022-12-25T04:43:30.629Z,4.80
2022-12-25T04:46:32.515Z,5.12
2022-12-25T04:49:47.657Z,4.50
2022-12-25T04:52:49.527Z,4.18
2022-12-25T04:56:08.708Z,4.45
2022-12-25T04:59:11.204Z,4.40
2022-12-25T05:02:25.790Z,4.12
2022-12-25T05:05:34.296Z,4.17
2022-12-25T05:08:48.640Z,4.12
2022-12-25T05:11:57.277Z,4.60
2022-12-25T05:15:05.606Z,4.32
2022-12-25T05:18:20.703Z,4.90
2022-12-25T05:21:28.606Z,5.07
2022-12-25T05:24:43.620Z,4.60
2022-12-25T05:28:05.833Z,4.37
2022-12-25T05:31:14.676Z,5.00
2022-12-25T05:34:23.449Z,5.47
2022-12-25T05:37:38.696Z,5.30
2022-12-25T05:40:47.451Z,5.30
2022-12-25T05:43:55.677Z,4.53
2022-12-25T05:47:10.802Z,4.53
2022-12-25T05:50:19.667Z,5.22
2022-12-25T05:53:34.635Z,4.77
2022-12-25T05:56:37.389Z,4.32
2022-12-25T05:59:51.722Z,4.95
2022-12-25T06:02:59.741Z,4.97
2022-12-25T06:06:08.468Z,5.22
2022-12-25T06:09:23.677Z,5.10
2022-12-25T06:12:25.509Z,5.37
2022-12-25T06:15:40.671Z,4.75
2022-12-25T06:18:51.285Z,4.60
2022-12-25T06:22:05.687Z,5.53
2022-12-25T06:25:07.954Z,4.40
2022-12-25T06:28:29.665Z,5.25
2022-12-25T06:31:31.729Z,4.43
2022-12-25T06:34:46.745Z,5.43
2022-12-25T06:37:54.650Z,5.15
2022-12-25T06:41:06.209Z,5.23
2022-12-25T06:44:20.680Z,5.35
2022-12-25T06:47:30.676Z,5.62
2022-12-25T06:50:49.705Z,5.28
2022-12-25T06:53:53.093Z,4.62
2022-12-25T06:57:07.714Z,5.30
2022-12-25T07:00:10.128Z,5.22
2022-12-25T07:03:27.775Z,5.12
2022-12-25T07:06:36.705Z,5.20
2022-12-25T07:09:51.659Z,5.30
2022-12-25T07:13:00.409Z,5.00
2022-12-25T07:16:10.704Z,4.62
2022-12-25T07:19:19.535Z,5.70
2022-12-25T07:22:36.664Z,4.78
2022-12-25T07:25:44.701Z,5.15
2022-12-25T07:29:00.000Z,5.53
2022-12-25T07:32:08.744Z,5.45
2022-12-25T07:35:17.673Z,5.45
2022-12-25T07:38:25.718Z,6.03
2022-12-25T07:41:40.673Z,5.93
2022-12-25T07:44:49.706Z,5.47
2022-12-25T07:48:04.447Z,5.07
2022-12-25T07:51:18.664Z,5.97
2022-12-25T07:54:33.721Z,6.07
2022-12-25T07:57:35.725Z,5.50
2022-12-25T08:00:50.816Z,5.20
2022-12-25T08:04:01.793Z,5.37
2022-12-25T08:07:16.796Z,5.45
2022-12-25T08:10:25.812Z,5.78
2022-12-25T08:13:34.867Z,5.78
2022-12-25T08:16:43.856Z,5.37
2022-12-25T08:19:52.407Z,5.07
2022-12-25T08:23:00.701Z,5.03
2022-12-25T08:26:21.741Z,5.07
2022-12-25T08:29:43.702Z,5.47
2022-12-25T08:32:52.460Z,5.53
2022-12-25T08:36:09.796Z,5.60
2022-12-25T08:39:11.846Z,5.22
2022-12-25T08:42:26.745Z,5.60
2022-12-25T08:45:42.027Z,5.30
2022-12-25T08:48:50.624Z,5.80
2022-12-25T08:52:07.740Z,6.05
2022-12-25T08:55:09.803Z,5.90
2022-12-25T08:58:24.858Z,5.62
2022-12-25T09:01:27.048Z,6.35
2022-12-25T09:04:41.741Z,6.43
2022-12-25T09:07:49.748Z,6.55
2022-12-25T09:11:03.549Z,6.70
2022-12-25T09:14:18.748Z,7.10
2022-12-25T09:17:20.585Z,6.50
2022-12-25T09:20:35.707Z,6.87
2022-12-25T09:23:45.177Z,7.80
2022-12-25T09:26:59.741Z,7.60
2022-12-25T09:30:01.764Z,7.07
2022-12-25T09:33:16.758Z,7.12
2022-12-25T09:36:19.096Z,7.53
2022-12-25T09:39:33.821Z,7.05
2022-12-25T09:42:43.478Z,7.65
2022-12-25T09:45:57.861Z,7.18
2022-12-25T09:49:20.480Z,7.18
2022-12-25T09:52:43.828Z,6.23
2022-12-25T09:56:10.804Z,7.55
2022-12-25T09:59:25.153Z,6.75
2022-12-25T10:03:03.920Z,7.03
2022-12-25T10:06:21.224Z,8.15
2022-12-25T10:09:46.894Z,6.10
2022-12-25T10:13:32.796Z,5.90
2022-12-25T10:16:49.373Z,6.30
2022-12-25T10:20:20.804Z,5.53
2022-12-25T10:23:38.858Z,5.75
2022-12-25T10:26:56.415Z,7.03
2022-12-25T10:30:21.768Z,6.22
2022-12-25T10:33:37.791Z,8.48
2022-12-25T10:36:53.805Z,5.85
2022-12-25T10:40:02.932Z,6.47
2022-12-25T10:43:16.784Z,7.47
2022-12-25T10:46:26.897Z,6.60
2022-12-25T10:49:38.539Z,6.10
2022-12-25T10:53:00.867Z,6.53
2022-12-25T10:56:18.060Z,5.70
2022-12-25T10:59:26.889Z,6.07
2022-12-25T11:02:40.772Z,5.05
2022-12-25T11:05:56.816Z,4.90
2022-12-25T11:09:12.815Z,5.53
2022-12-25T11:12:19.019Z,5.18
2022-12-25T11:15:45.798Z,3.90
2022-12-25T11:18:50.892Z,4.80
2022-12-25T11:22:08.795Z,4.93
2022-12-25T11:25:15.157Z,4.57
2022-12-25T11:28:39.862Z,3.78
2022-12-25T11:31:51.211Z,4.10
2022-12-25T11:34:59.824Z,4.50
2022-12-25T11:38:15.882Z,3.40
2022-12-25T11:41:21.060Z,4.65
2022-12-25T11:44:49.048Z,3.22
2022-12-25T11:48:02.176Z,2.70
2022-12-25T11:51:16.837Z,4.10
2022-12-25T11:54:30.157Z,2.90
2022-12-25T11:57:46.797Z,2.47
2022-12-25T12:00:52.186Z,2.60
2022-12-25T12:04:08.915Z,2.40
2022-12-25T12:07:31.851Z,2.03
2022-12-25T12:10:54.724Z,2.22
2022-12-25T12:14:29.834Z,2.70
2022-12-25T12:17:38.444Z,2.70
2022-12-25T12:20:46.858Z,7.83
2022-12-25T12:24:18.869Z,2.60
2022-12-25T12:27:45.897Z,2.80
2022-12-25T12:31:06.892Z,2.70
2022-12-25T12:34:26.029Z,3.22
2022-12-25T12:37:38.869Z,2.90
2022-12-25T12:40:58.723Z,2.70
2022-12-25T12:44:16.871Z,3.05
2022-12-25T12:47:47.971Z,2.60
2022-12-25T12:51:12.920Z,3.33
2022-12-25T12:54:25.237Z,3.37
2022-12-25T12:57:37.152Z,2.75
2022-12-25T13:01:02.863Z,3.90
2022-12-25T13:04:31.899Z,3.53
2022-12-25T13:07:57.844Z,3.67
2022-12-25T13:11:17.865Z,3.30
2022-12-25T13:14:32.923Z,2.55
2022-12-25T13:17:35.704Z,3.05
2022-12-25T13:20:57.056Z,2.58
2022-12-25T13:24:05.440Z,2.47
2022-12-25T13:27:31.872Z,2.17
2022-12-25T13:30:40.661Z,2.65
2022-12-25T13:34:25.929Z,2.60
2022-12-25T13:37:37.945Z,1.90
2022-12-25T13:40:51.928Z,2.60
2022-12-25T13:44:06.935Z,3.90
2022-12-25T13:47:26.897Z,2.42
2022-12-25T13:50:36.021Z,3.08
2022-12-25T13:53:44.984Z,2.87
2022-12-25T13:56:55.299Z,2.90
2022-12-25T14:00:03.972Z,3.37
2022-12-25T14:03:20.080Z,3.15
2022-12-25T14:06:37.917Z,2.90
2022-12-25T14:09:57.254Z,5.45
2022-12-25T14:13:10.896Z,3.70
2022-12-25T14:16:27.012Z,3.73
2022-12-25T14:19:35.784Z,4.03
2022-12-25T14:22:57.929Z,4.32
2022-12-25T14:25:59.838Z,4.45
2022-12-25T14:29:28.301Z,4.57
2022-12-25T14:32:43.887Z,5.30
2022-12-25T14:35:59.983Z,5.00
2022-12-25T14:39:06.814Z,5.12
2022-12-25T14:42:33.008Z,5.75
2022-12-25T14:45:47.941Z,5.55
2022-12-25T14:49:05.970Z,5.57
2022-12-25T14:52:29.016Z,6.18
2022-12-25T14:55:37.961Z,6.47
2022-12-25T14:58:52.633Z,6.50
2022-12-25T15:02:05.144Z,6.97
2022-12-25T15:05:25.691Z,7.47
2022-12-25T15:08:36.006Z,9.20
2022-12-25T15:11:49.652Z,9.75
2022-12-25T15:14:58.009Z,9.07
2022-12-25T15:18:13.003Z,8.80
2022-12-25T15:21:20.086Z,9.23
2022-12-25T15:24:35.976Z,9.82
2022-12-25T15:27:37.814Z,9.30
2022-12-25T15:30:54.072Z,9.55
2022-12-25T15:33:58.197Z,9.32
2022-12-25T15:37:13.229Z,9.13
2022-12-25T15:40:22.993Z,10.82
2022-12-25T15:43:40.687Z,10.07
2022-12-25T15:46:56.004Z,10.48
2022-12-25T15:50:11.959Z,10.48
2022-12-25T15:53:14.189Z,11.10
2022-12-25T15:56:29.988Z,10.18
2022-12-25T15:59:44.985Z,11.57
2022-12-25T16:02:47.046Z,10.27
2022-12-25T16:06:01.982Z,10.07
2022-12-25T16:09:04.529Z,9.73
2022-12-25T16:12:19.028Z,9.35
2022-12-25T16:15:27.673Z,10.15
2022-12-25T16:18:47.081Z,9.15
2022-12-25T16:21:49.785Z,9.40
2022-12-25T16:25:05.039Z,9.23
2022-12-25T16:28:13.356Z,9.85
2022-12-25T16:31:28.062Z,8.70
2022-12-25T16:34:43.067Z,9.38
2022-12-25T16:37:51.605Z,8.80
2022-12-25T16:41:04.077Z,8.77
2022-12-25T16:44:12.620Z,7.97
2022-12-25T16:47:21.024Z,8.75
2022-12-25T16:50:36.011Z,9.40
2022-12-25T16:53:38.842Z,9.30
2022-12-25T16:56:54.069Z,9.97
2022-12-25T17:00:03.035Z,10.05
2022-12-25T17:03:12.177Z,10.25
2022-12-25T17:06:26.231Z,10.80
2022-12-25T17:09:44.407Z,10.50
2022-12-25T17:12:52.788Z,10.33
2022-12-25T17:16:01.126Z,9.30
2022-12-25T17:19:20.954Z,10.27
2022-12-25T17:22:36.017Z,9.73
2022-12-25T17:25:37.758Z,9.35
2022-12-25T17:28:52.027Z,9.30
2022-12-25T17:32:07.081Z,9.85
2022-12-25T17:35:15.751Z,10.43
2022-12-25T17:38:30.213Z,10.05
2022-12-25T17:41:39.107Z,10.25
2022-12-25T17:44:47.017Z,10.53
2022-12-25T17:48:02.058Z,11.27
2022-12-25T17:51:20.027Z,10.73
2022-12-25T17:54:28.067Z,12.15
2022-12-25T17:57:43.095Z,10.95
2022-12-25T18:00:45.071Z,12.50
2022-12-25T18:04:01.129Z,11.82
2022-12-25T18:07:03.248Z,12.68
2022-12-25T18:10:18.326Z,13.15
2022-12-25T18:13:26.739Z,12.68
2022-12-25T18:16:39.194Z,13.70
2022-12-25T18:19:50.356Z,12.40
2022-12-25T18:23:05.084Z,14.60
2022-12-25T18:26:14.166Z,13.65
2022-12-25T18:29:29.084Z,14.75
2022-12-25T18:32:37.796Z,13.87
2022-12-25T18:35:48.101Z,13.98
2022-12-25T18:38:57.882Z,13.80
2022-12-25T18:42:13.091Z,13.82
2022-12-25T18:45:22.031Z,14.98
2022-12-25T18:48:39.117Z,14.43
2022-12-25T18:51:41.074Z,13.62
2022-12-25T18:54:56.068Z,12.37
2022-12-25T18:57:58.539Z,13.38
2022-12-25T19:01:24.299Z,13.13
2022-12-25T19:04:33.083Z,12.20
2022-12-25T19:07:48.150Z,12.05
2022-12-25T19:10:50.523Z,11.73
2022-12-25T19:14:05.109Z,11.35
2022-12-25T19:17:14.149Z,12.40
2022-12-25T19:20:29.123Z,11.03
2022-12-25T19:23:38.314Z,11.38
2022-12-25T19:26:47.065Z,11.55
2022-12-25T19:30:02.107Z,12.43
2022-12-25T19:33:18.237Z,13.27
2022-12-25T19:36:27.897Z,12.17
2022-12-25T19:39:44.118Z,12.00
2022-12-25T19:42:46.203Z,11.88
2022-12-25T19:46:01.198Z,11.82
2022-12-25T19:49:03.850Z,12.07
2022-12-25T19:52:20.150Z,11.13
2022-12-25T19:55:29.102Z,12.10
2022-12-25T19:58:45.076Z,12.57
2022-12-25T20:01:47.330Z,12.37
2022-12-25T20:05:02.129Z,11.60
2022-12-25T20:08:11.236Z,10.67
2022-12-25T20:11:28.158Z,11.23
2022-12-25T20:14:36.232Z,11.50
2022-12-25T20:17:47.219Z,10.95
2022-12-25T20:20:56.177Z,13.45
2022-12-25T20:24:05.397Z,11.93
2022-12-25T20:27:20.269Z,12.98
2022-12-25T20:30:35.430Z,13.62
2022-12-25T20:33:45.297Z,13.77
2022-12-25T20:36:54.272Z,13.15
2022-12-25T20:40:02.881Z,10.80
2022-12-25T20:43:18.257Z,11.45
2022-12-25T20:46:27.358Z,12.55
2022-12-25T20:49:35.821Z,10.38
2022-12-25T20:52:44.176Z,10.95
2022-12-25T20:55:59.146Z,11.13
2022-12-25T20:59:02.387Z,10.93
2022-12-25T21:02:34.263Z,10.93
2022-12-25T21:05:45.224Z,10.82
2022-12-25T21:09:00.152Z,10.65
2022-12-25T21:12:01.972Z,10.63
2022-12-25T21:15:17.206Z,11.63
2022-12-25T21:18:22.192Z,10.55
2022-12-25T21:21:37.195Z,9.98
2022-12-25T21:24:39.043Z,9.32
2022-12-25T21:27:54.180Z,9.30
2022-12-25T21:31:09.338Z,9.48
2022-12-25T21:34:24.189Z,8.35
2022-12-25T21:37:36.155Z,7.03
2022-12-25T21:40:45.198Z,8.18
2022-12-25T21:44:01.180Z,8.50
2022-12-25T21:47:03.218Z,8.68
2022-12-25T21:50:18.266Z,8.00
2022-12-25T21:53:20.177Z,8.27
2022-12-25T21:56:43.001Z,8.07
2022-12-25T21:59:45.613Z,8.13
2022-12-25T22:03:00.314Z,7.45
2022-12-25T22:06:02.343Z,8.88
2022-12-25T22:09:17.521Z,8.75
2022-12-25T22:12:33.907Z,9.50
2022-12-25T22:15:43.096Z,8.07
2022-12-25T22:18:55.208Z,8.35
2022-12-25T22:22:03.945Z,9.98
2022-12-25T22:25:13.260Z,8.85
2022-12-25T22:28:35.228Z,9.18
2022-12-25T22:31:46.877Z,9.10
2022-12-25T22:35:02.181Z,8.05
2022-12-25T22:38:17.214Z,8.60
2022-12-25T22:41:29.880Z,8.50
2022-12-25T22:44:48.215Z,7.80
2022-12-25T22:47:56.171Z,7.57
2022-12-25T22:51:11.223Z,7.43
2022-12-25T22:54:14.312Z,7.57
2022-12-25T22:57:30.276Z,8.52
2022-12-25T23:00:45.938Z,8.23
2022-12-25T23:04:01.342Z,7.17
2022-12-25T23:07:10.225Z,7.72
2022-12-25T23:10:26.325Z,8.10
2022-12-25T23:13:28.124Z,7.75
2022-12-25T23:16:44.277Z,7.18
2022-12-25T23:19:46.160Z,7.37
2022-12-25T23:23:01.359Z,7.37
2022-12-25T23:26:10.354Z,8.02
2022-12-25T23:29:25.568Z,7.60
2022-12-25T23:32:40.266Z,7.72
2022-12-25T23:35:48.920Z,8.20
2022-12-25T23:39:08.927Z,8.07
2022-12-25T23:42:12.254Z,8.32
2022-12-25T23:45:27.238Z,7.97
2022-12-25T23:48:29.423Z,8.05
2022-12-25T23:51:46.241Z,8.33
2022-12-25T23:54:54.234Z,7.60
2022-12-25T23:58:09.367Z,8.30
